Aérodrome :
LOGIN :

S'inscrire | Disclaimer

   EN    FR    IT 

 










Légende :    VFR   VFR Marginal   IFR   IFR Intensif   IFR Très Intensif
Visi : 
Plafond : 
>= 8 km
>= 3000ft
5 à 8 km
1000 à 3000 ft
1500m à 5 km
500 à 1000 ft
800 à 1500m
200 à 500 ft
< 800m
< 200 ft
Symboles :   Orages  Brouillard  Fortes neiges  Fortes précipitations  Vent > 20 kt
SIGMETs :   Divers  Orages  Givrage  Turbulence  Onde Orograph.  Cendres Volcan.






- Altitude de l'aérodrome : 1375 ft
- Code IATA : SCV


LRSV - Suceava Stefan cel Mare

DERNIER METAR :
  • 020230Z 29007KT CAVOK 05/04 Q1010 R16/29//95

METARs EXPIRÉS :
  • 020200Z 28008KT CAVOK 06/04 Q1010 R16/29//95
  • 020130Z 27008KT CAVOK 06/05 Q1010 R16/29//95
  • 020100Z 30008KT CAVOK 07/05 Q1011 R16/29//95
  • 020030Z 31007KT CAVOK 07/05 Q1011 R16/29//95
  • 020000Z 30006KT CAVOK 07/05 Q1011 R16/29//95

TAF TAF LRSV
Valide du 02 à 03h jusqu'au 02 à 12h UTC


020200Z 0203/0212 29008KT CAVOK
PROB30
TEMPO 0203/0205 5000 BR
TEMPO 0210/0212 5000 -SHRA SCT045CB



MET'MAP, la Météo Aéronautique d'un coup d'oeil ! - Copyright ORBIFLY Décembre 2007 - Disclaimer

ORBIFLY MET'MAP TEAM :

Programmation & Développement : Alexandra Zaïnal
Sur une idée originale de : Baudouin d'Aumeries
Assistance à la programmation : Marc-Olivier Méhu
Soutien technique & logistique : Manuel Goepfert

Contact : metmap@orbifly.com




SOURCES & CREDITS :

   NOAA